Terminal Aerodrome Forecast
Issued by NWS

Home | Current Version | Previous Version | Text Only | Print | Product List | Glossary Off
Versions: 1 2 3 4 5 6 7 8 9 10 11 12 13 14 15 16 17 18

000
FTUS43 KGRB 171700
TAFATW
TAF
KATW 171734Z 1718/1818 31012G19KT P6SM -SN SCT025 BKN110
     FM172000 31008KT 5SM -SN SCT030 BKN050
     FM172300 32007KT P6SM -SN BKN030
     FM180500 34006KT P6SM SCT030=

USA.gov is the U.S. government's official web portal to all federal, state and local government web resources and services.